sensor_id;sensor_type;location;lat;lon;timestamp;pressure;altitude;pressure_sealevel;temperature;humidity
77086;BME280;66014;53.134;18.006;2023-05-14T00:01:26;101721.77;;;14.30;48.02
77086;BME280;66014;53.134;18.006;2023-05-14T00:03:53;101722.63;;;14.29;48.03
77086;BME280;66014;53.134;18.006;2023-05-14T00:06:19;101713.92;;;14.26;48.12
77086;BME280;66014;53.134;18.006;2023-05-14T00:08:46;101710.92;;;14.25;48.17
77086;BME280;66014;53.134;18.006;2023-05-14T00:11:13;101712.71;;;14.23;48.23
77086;BME280;66014;53.134;18.006;2023-05-14T00:13:39;101709.95;;;14.20;48.41
77086;BME280;66014;53.134;18.006;2023-05-14T00:16:06;101711.93;;;14.17;48.51
77086;BME280;66014;53.134;18.006;2023-05-14T00:18:32;101711.04;;;14.14;48.53
77086;BME280;66014;53.134;18.006;2023-05-14T00:20:59;101712.09;;;14.11;48.63
77086;BME280;66014;53.134;18.006;2023-05-14T00:23:25;101715.31;;;14.08;48.78
77086;BME280;66014;53.134;18.006;2023-05-14T00:25:52;101713.48;;;14.05;48.79
77086;BME280;66014;53.134;18.006;2023-05-14T00:28:19;101711.36;;;14.02;49.03
77086;BME280;66014;53.134;18.006;2023-05-14T00:30:45;101711.94;;;14.00;48.99
77086;BME280;66014;53.134;18.006;2023-05-14T00:33:12;101708.73;;;13.97;49.12
77086;BME280;66014;53.134;18.006;2023-05-14T00:35:38;101704.59;;;13.94;49.15
77086;BME280;66014;53.134;18.006;2023-05-14T00:38:05;101703.54;;;13.91;49.34
77086;BME280;66014;53.134;18.006;2023-05-14T00:40:31;101700.00;;;13.88;49.39
77086;BME280;66014;53.134;18.006;2023-05-14T00:42:58;101698.03;;;13.85;49.46
77086;BME280;66014;53.134;18.006;2023-05-14T00:45:25;101696.85;;;13.81;49.56
77086;BME280;66014;53.134;18.006;2023-05-14T00:47:52;101695.66;;;13.77;49.79
77086;BME280;66014;53.134;18.006;2023-05-14T00:50:19;101697.08;;;13.73;49.93
77086;BME280;66014;53.134;18.006;2023-05-14T00:52:46;101696.61;;;13.68;49.90
77086;BME280;66014;53.134;18.006;2023-05-14T00:55:14;101696.91;;;13.63;50.15
77086;BME280;66014;53.134;18.006;2023-05-14T00:57:42;101699.36;;;13.59;50.27
77086;BME280;66014;53.134;18.006;2023-05-14T01:00:09;101701.25;;;13.55;50.36
77086;BME280;66014;53.134;18.006;2023-05-14T01:02:36;101702.16;;;13.50;50.41
77086;BME280;66014;53.134;18.006;2023-05-14T01:05:03;101701.03;;;13.46;50.65
77086;BME280;66014;53.134;18.006;2023-05-14T01:07:48;101704.69;;;13.42;50.79
77086;BME280;66014;53.134;18.006;2023-05-14T01:10:26;101701.58;;;13.38;50.85
77086;BME280;66014;53.134;18.006;2023-05-14T01:13:12;101708.14;;;13.34;50.94
77086;BME280;66014;53.134;18.006;2023-05-14T01:15:40;101705.27;;;13.29;50.89
77086;BME280;66014;53.134;18.006;2023-05-14T01:18:13;101701.63;;;13.25;51.11
77086;BME280;66014;53.134;18.006;2023-05-14T01:20:41;101702.95;;;13.21;51.07
77086;BME280;66014;53.134;18.006;2023-05-14T01:23:08;101702.73;;;13.18;51.20
77086;BME280;66014;53.134;18.006;2023-05-14T01:25:36;101699.98;;;13.14;51.33
77086;BME280;66014;53.134;18.006;2023-05-14T01:30:52;101700.58;;;13.07;51.55
77086;BME280;66014;53.134;18.006;2023-05-14T01:33:20;101699.58;;;13.04;51.66
77086;BME280;66014;53.134;18.006;2023-05-14T01:35:48;101695.26;;;12.99;51.88
77086;BME280;66014;53.134;18.006;2023-05-14T01:38:18;101696.35;;;12.95;51.93
77086;BME280;66014;53.134;18.006;2023-05-14T01:40:48;101695.73;;;12.93;52.12
77086;BME280;66014;53.134;18.006;2023-05-14T01:43:15;101700.34;;;12.90;52.09
77086;BME280;66014;53.134;18.006;2023-05-14T01:45:42;101701.48;;;12.88;52.10
77086;BME280;66014;53.134;18.006;2023-05-14T01:48:09;101697.54;;;12.85;52.06
77086;BME280;66014;53.134;18.006;2023-05-14T01:50:36;101692.13;;;12.82;52.27
77086;BME280;66014;53.134;18.006;2023-05-14T01:53:02;101686.88;;;12.80;52.33
77086;BME280;66014;53.134;18.006;2023-05-14T01:55:29;101684.60;;;12.78;52.29
77086;BME280;66014;53.134;18.006;2023-05-14T01:57:55;101679.59;;;12.75;52.36
77086;BME280;66014;53.134;18.006;2023-05-14T02:00:23;101683.55;;;12.71;52.60
77086;BME280;66014;53.134;18.006;2023-05-14T02:02:52;101680.35;;;12.66;52.73
77086;BME280;66014;53.134;18.006;2023-05-14T02:05:19;101678.20;;;12.63;52.84
77086;BME280;66014;53.134;18.006;2023-05-14T02:07:46;101679.89;;;12.61;52.78
77086;BME280;66014;53.134;18.006;2023-05-14T02:10:13;101680.61;;;12.59;52.99
77086;BME280;66014;53.134;18.006;2023-05-14T02:12:39;101679.97;;;12.55;53.10
77086;BME280;66014;53.134;18.006;2023-05-14T02:15:06;101680.90;;;12.51;53.24
77086;BME280;66014;53.134;18.006;2023-05-14T02:17:35;101679.40;;;12.49;53.32
77086;BME280;66014;53.134;18.006;2023-05-14T02:20:01;101680.02;;;12.46;53.42
77086;BME280;66014;53.134;18.006;2023-05-14T02:22:28;101680.02;;;12.45;53.52
77086;BME280;66014;53.134;18.006;2023-05-14T02:24:54;101681.75;;;12.44;53.61
77086;BME280;66014;53.134;18.006;2023-05-14T02:27:22;101677.39;;;12.41;53.57
77086;BME280;66014;53.134;18.006;2023-05-14T02:29:48;101678.67;;;12.39;53.62
77086;BME280;66014;53.134;18.006;2023-05-14T02:32:15;101680.02;;;12.37;53.76
77086;BME280;66014;53.134;18.006;2023-05-14T02:34:41;101673.10;;;12.35;53.89
77086;BME280;66014;53.134;18.006;2023-05-14T02:37:08;101669.02;;;12.33;53.86
77086;BME280;66014;53.134;18.006;2023-05-14T02:39:35;101670.28;;;12.31;53.93
77086;BME280;66014;53.134;18.006;2023-05-14T02:42:01;101669.17;;;12.25;54.05
77086;BME280;66014;53.134;18.006;2023-05-14T02:44:27;101665.42;;;12.22;54.29
77086;BME280;66014;53.134;18.006;2023-05-14T02:46:54;101663.81;;;12.20;54.20
77086;BME280;66014;53.134;18.006;2023-05-14T02:49:20;101666.51;;;12.18;54.19
77086;BME280;66014;53.134;18.006;2023-05-14T02:51:47;101663.70;;;12.17;54.38
77086;BME280;66014;53.134;18.006;2023-05-14T02:54:13;101661.58;;;12.15;54.36
77086;BME280;66014;53.134;18.006;2023-05-14T02:56:41;101658.95;;;12.11;54.57
77086;BME280;66014;53.134;18.006;2023-05-14T02:59:08;101660.57;;;12.08;54.54
77086;BME280;66014;53.134;18.006;2023-05-14T03:01:34;101660.54;;;12.03;54.61
77086;BME280;66014;53.134;18.006;2023-05-14T03:04:01;101661.22;;;11.98;54.63
77086;BME280;66014;53.134;18.006;2023-05-14T03:06:27;101662.67;;;11.95;54.95
77086;BME280;66014;53.134;18.006;2023-05-14T03:08:54;101663.02;;;11.91;55.03
77086;BME280;66014;53.134;18.006;2023-05-14T03:11:20;101660.44;;;11.87;55.03
77086;BME280;66014;53.134;18.006;2023-05-14T03:13:47;101664.94;;;11.85;55.19
77086;BME280;66014;53.134;18.006;2023-05-14T03:16:14;101664.59;;;11.82;55.23
77086;BME280;66014;53.134;18.006;2023-05-14T03:18:41;101668.20;;;11.82;55.15
77086;BME280;66014;53.134;18.006;2023-05-14T03:21:08;101670.83;;;11.82;55.22
77086;BME280;66014;53.134;18.006;2023-05-14T03:23:34;101671.29;;;11.82;55.30
77086;BME280;66014;53.134;18.006;2023-05-14T03:26:01;101674.02;;;11.83;55.27
77086;BME280;66014;53.134;18.006;2023-05-14T03:28:27;101667.87;;;11.84;55.26
77086;BME280;66014;53.134;18.006;2023-05-14T03:30:55;101666.41;;;11.85;55.37
77086;BME280;66014;53.134;18.006;2023-05-14T03:33:21;101660.46;;;11.85;55.36
77086;BME280;66014;53.134;18.006;2023-05-14T03:35:48;101664.74;;;11.87;55.51
77086;BME280;66014;53.134;18.006;2023-05-14T03:38:15;101661.95;;;11.88;55.37
77086;BME280;66014;53.134;18.006;2023-05-14T03:40:43;101661.71;;;11.90;55.48
77086;BME280;66014;53.134;18.006;2023-05-14T03:43:10;101659.49;;;11.93;55.45
77086;BME280;66014;53.134;18.006;2023-05-14T03:45:37;101657.96;;;11.95;55.46
77086;BME280;66014;53.134;18.006;2023-05-14T03:48:04;101659.05;;;11.99;55.31
77086;BME280;66014;53.134;18.006;2023-05-14T03:50:31;101656.48;;;12.01;55.28
77086;BME280;66014;53.134;18.006;2023-05-14T03:52:57;101647.69;;;12.04;55.34
77086;BME280;66014;53.134;18.006;2023-05-14T03:55:24;101648.35;;;12.07;55.28
77086;BME280;66014;53.134;18.006;2023-05-14T03:57:51;101645.89;;;12.12;55.23
77086;BME280;66014;53.134;18.006;2023-05-14T04:00:17;101648.42;;;12.15;55.20
77086;BME280;66014;53.134;18.006;2023-05-14T04:02:44;101646.75;;;12.17;55.28
77086;BME280;66014;53.134;18.006;2023-05-14T04:05:10;101646.13;;;12.21;55.08
77086;BME280;66014;53.134;18.006;2023-05-14T04:07:37;101645.94;;;12.25;55.08
77086;BME280;66014;53.134;18.006;2023-05-14T04:10:04;101649.59;;;12.30;54.97
77086;BME280;66014;53.134;18.006;2023-05-14T04:12:30;101644.27;;;12.35;54.93
77086;BME280;66014;53.134;18.006;2023-05-14T04:14:57;101641.95;;;12.40;54.92
77086;BME280;66014;53.134;18.006;2023-05-14T04:17:23;101647.08;;;12.45;54.82
77086;BME280;66014;53.134;18.006;2023-05-14T04:19:51;101649.91;;;12.50;54.89
77086;BME280;66014;53.134;18.006;2023-05-14T04:22:17;101648.09;;;12.55;54.78
77086;BME280;66014;53.134;18.006;2023-05-14T04:24:44;101643.98;;;12.60;54.56
77086;BME280;66014;53.134;18.006;2023-05-14T04:27:10;101640.92;;;12.65;54.65
77086;BME280;66014;53.134;18.006;2023-05-14T04:29:37;101645.34;;;12.70;54.72
77086;BME280;66014;53.134;18.006;2023-05-14T04:32:03;101641.15;;;12.76;54.63
77086;BME280;66014;53.134;18.006;2023-05-14T04:34:30;101641.60;;;12.83;54.55
77086;BME280;66014;53.134;18.006;2023-05-14T04:36:56;101642.48;;;12.90;54.47
77086;BME280;66014;53.134;18.006;2023-05-14T04:39:23;101643.39;;;12.96;54.35
77086;BME280;66014;53.134;18.006;2023-05-14T04:41:49;101640.92;;;13.02;54.20
77086;BME280;66014;53.134;18.006;2023-05-14T04:44:16;101640.87;;;13.09;54.07
77086;BME280;66014;53.134;18.006;2023-05-14T04:46:43;101638.23;;;13.15;53.96
77086;BME280;66014;53.134;18.006;2023-05-14T04:49:09;101635.85;;;13.22;53.97
77086;BME280;66014;53.134;18.006;2023-05-14T04:51:35;101636.85;;;13.29;53.75
77086;BME280;66014;53.134;18.006;2023-05-14T04:54:02;101632.89;;;13.37;53.74
77086;BME280;66014;53.134;18.006;2023-05-14T04:56:29;101632.09;;;13.45;53.64
77086;BME280;66014;53.134;18.006;2023-05-14T04:58:55;101633.02;;;13.53;53.52
77086;BME280;66014;53.134;18.006;2023-05-14T05:01:22;101635.15;;;13.61;53.40
77086;BME280;66014;53.134;18.006;2023-05-14T05:03:48;101633.39;;;13.68;53.32
77086;BME280;66014;53.134;18.006;2023-05-14T05:06:15;101631.88;;;13.77;53.13
77086;BME280;66014;53.134;18.006;2023-05-14T05:08:41;101632.79;;;13.87;53.10
77086;BME280;66014;53.134;18.006;2023-05-14T05:11:08;101632.52;;;13.99;52.96
77086;BME280;66014;53.134;18.006;2023-05-14T05:13:34;101627.28;;;14.12;52.59
77086;BME280;66014;53.134;18.006;2023-05-14T05:16:01;101628.30;;;14.23;52.27
77086;BME280;66014;53.134;18.006;2023-05-14T05:18:27;101629.02;;;14.35;52.02
77086;BME280;66014;53.134;18.006;2023-05-14T05:20:53;101627.81;;;14.48;51.83
77086;BME280;66014;53.134;18.006;2023-05-14T05:23:21;101626.20;;;14.60;51.57
77086;BME280;66014;53.134;18.006;2023-05-14T05:25:48;101621.91;;;14.69;51.17
77086;BME280;66014;53.134;18.006;2023-05-14T05:28:15;101621.98;;;14.80;51.03
77086;BME280;66014;53.134;18.006;2023-05-14T05:30:42;101627.54;;;14.97;50.85
77086;BME280;66014;53.134;18.006;2023-05-14T05:33:11;101624.63;;;15.19;50.59
77086;BME280;66014;53.134;18.006;2023-05-14T05:35:37;101626.56;;;15.41;50.31
77086;BME280;66014;53.134;18.006;2023-05-14T05:38:04;101620.58;;;15.59;50.08
77086;BME280;66014;53.134;18.006;2023-05-14T05:40:30;101619.03;;;15.79;49.81
77086;BME280;66014;53.134;18.006;2023-05-14T05:42:57;101616.47;;;15.92;49.43
77086;BME280;66014;53.134;18.006;2023-05-14T05:45:23;101614.46;;;16.04;49.15
77086;BME280;66014;53.134;18.006;2023-05-14T05:47:50;101615.39;;;16.16;48.95
77086;BME280;66014;53.134;18.006;2023-05-14T05:50:16;101615.07;;;16.32;48.56
77086;BME280;66014;53.134;18.006;2023-05-14T05:52:43;101611.13;;;16.52;47.86
77086;BME280;66014;53.134;18.006;2023-05-14T05:55:10;101608.23;;;16.66;47.20
77086;BME280;66014;53.134;18.006;2023-05-14T05:57:36;101604.79;;;16.84;47.16
77086;BME280;66014;53.134;18.006;2023-05-14T06:00:03;101608.98;;;16.95;47.02
77086;BME280;66014;53.134;18.006;2023-05-14T06:02:39;101606.16;;;17.07;46.80
77086;BME280;66014;53.134;18.006;2023-05-14T06:05:06;101604.16;;;17.21;46.23
77086;BME280;66014;53.134;18.006;2023-05-14T06:07:33;101603.23;;;17.36;45.63
77086;BME280;66014;53.134;18.006;2023-05-14T06:10:01;101605.32;;;17.49;45.33
77086;BME280;66014;53.134;18.006;2023-05-14T06:12:28;101605.43;;;17.63;45.17
77086;BME280;66014;53.134;18.006;2023-05-14T06:14:54;101604.46;;;17.90;44.79
77086;BME280;66014;53.134;18.006;2023-05-14T06:17:23;101598.00;;;18.15;44.40
77086;BME280;66014;53.134;18.006;2023-05-14T06:19:51;101599.63;;;18.45;44.34
77086;BME280;66014;53.134;18.006;2023-05-14T06:22:18;101601.42;;;19.21;43.27
77086;BME280;66014;53.134;18.006;2023-05-14T06:24:44;101598.45;;;20.02;42.64
77086;BME280;66014;53.134;18.006;2023-05-14T06:27:11;101597.81;;;21.41;41.01
77086;BME280;66014;53.134;18.006;2023-05-14T06:29:37;101595.75;;;22.83;39.00
77086;BME280;66014;53.134;18.006;2023-05-14T06:32:06;101601.53;;;23.57;37.97
77086;BME280;66014;53.134;18.006;2023-05-14T06:34:33;101600.30;;;24.17;37.19
77086;BME280;66014;53.134;18.006;2023-05-14T06:37:00;101599.11;;;24.88;36.09
77086;BME280;66014;53.134;18.006;2023-05-14T06:39:29;101608.04;;;25.79;34.30
77086;BME280;66014;53.134;18.006;2023-05-14T06:41:55;101606.45;;;26.50;32.20
77086;BME280;66014;53.134;18.006;2023-05-14T06:44:22;101606.14;;;26.97;32.18
77086;BME280;66014;53.134;18.006;2023-05-14T06:46:48;101598.77;;;27.76;31.52
77086;BME280;66014;53.134;18.006;2023-05-14T06:49:15;101595.13;;;28.45;30.57
77086;BME280;66014;53.134;18.006;2023-05-14T06:51:41;101591.79;;;29.17;28.66
77086;BME280;66014;53.134;18.006;2023-05-14T06:54:08;101591.27;;;29.72;27.57
77086;BME280;66014;53.134;18.006;2023-05-14T06:56:34;101590.02;;;30.28;27.09
77086;BME280;66014;53.134;18.006;2023-05-14T06:59:01;101587.29;;;30.71;26.25
77086;BME280;66014;53.134;18.006;2023-05-14T07:01:28;101591.04;;;31.35;25.12
77086;BME280;66014;53.134;18.006;2023-05-14T07:03:54;101595.00;;;31.92;23.66
77086;BME280;66014;53.134;18.006;2023-05-14T07:06:21;101593.02;;;31.80;22.85
77086;BME280;66014;53.134;18.006;2023-05-14T07:08:48;101588.76;;;31.99;22.30
77086;BME280;66014;53.134;18.006;2023-05-14T07:11:15;101581.98;;;32.26;22.50
77086;BME280;66014;53.134;18.006;2023-05-14T07:13:41;101580.70;;;32.41;22.08
77086;BME280;66014;53.134;18.006;2023-05-14T07:16:08;101579.41;;;32.57;21.52
77086;BME280;66014;53.134;18.006;2023-05-14T07:18:36;101576.93;;;32.70;21.34
77086;BME280;66014;53.134;18.006;2023-05-14T07:21:03;101576.89;;;33.17;20.61
77086;BME280;66014;53.134;18.006;2023-05-14T07:23:33;101577.51;;;33.48;19.98
77086;BME280;66014;53.134;18.006;2023-05-14T07:26:02;101576.27;;;33.63;19.98
77086;BME280;66014;53.134;18.006;2023-05-14T07:28:31;101569.48;;;33.87;19.45
77086;BME280;66014;53.134;18.006;2023-05-14T07:30:58;101565.46;;;33.88;19.74
77086;BME280;66014;53.134;18.006;2023-05-14T07:33:25;101560.64;;;34.16;19.34
77086;BME280;66014;53.134;18.006;2023-05-14T07:35:52;101562.09;;;34.52;18.83
77086;BME280;66014;53.134;18.006;2023-05-14T07:38:19;101552.97;;;34.63;18.95
77086;BME280;66014;53.134;18.006;2023-05-14T07:40:46;101552.89;;;35.02;18.98
77086;BME280;66014;53.134;18.006;2023-05-14T07:43:13;101553.23;;;35.68;18.61
77086;BME280;66014;53.134;18.006;2023-05-14T07:45:39;101545.77;;;36.34;18.02
77086;BME280;66014;53.134;18.006;2023-05-14T07:48:06;101544.10;;;36.85;16.87
77086;BME280;66014;53.134;18.006;2023-05-14T07:50:32;101543.24;;;36.86;17.03
77086;BME280;66014;53.134;18.006;2023-05-14T07:52:59;101533.99;;;37.10;17.08
77086;BME280;66014;53.134;18.006;2023-05-14T07:55:25;101525.97;;;37.63;16.67
77086;BME280;66014;53.134;18.006;2023-05-14T07:57:52;101523.18;;;37.80;15.92
77086;BME280;66014;53.134;18.006;2023-05-14T08:00:18;101520.77;;;37.89;16.10
77086;BME280;66014;53.134;18.006;2023-05-14T08:02:45;101519.91;;;37.98;15.69
77086;BME280;66014;53.134;18.006;2023-05-14T08:05:11;101515.23;;;38.00;16.05
77086;BME280;66014;53.134;18.006;2023-05-14T08:07:38;101515.16;;;38.36;15.56
77086;BME280;66014;53.134;18.006;2023-05-14T08:10:05;101515.11;;;38.71;15.58
77086;BME280;66014;53.134;18.006;2023-05-14T08:12:32;101509.54;;;39.09;14.97
77086;BME280;66014;53.134;18.006;2023-05-14T08:14:59;101509.73;;;39.22;14.70
77086;BME280;66014;53.134;18.006;2023-05-14T08:17:26;101507.82;;;39.38;15.00
77086;BME280;66014;53.134;18.006;2023-05-14T08:19:52;101503.11;;;39.60;14.76
77086;BME280;66014;53.134;18.006;2023-05-14T08:22:19;101499.25;;;39.83;14.30
77086;BME280;66014;53.134;18.006;2023-05-14T08:24:47;101495.23;;;40.11;14.24
77086;BME280;66014;53.134;18.006;2023-05-14T08:27:14;101499.30;;;40.04;13.88
77086;BME280;66014;53.134;18.006;2023-05-14T08:29:41;101492.84;;;39.95;13.67
77086;BME280;66014;53.134;18.006;2023-05-14T08:32:08;101494.95;;;40.08;13.45
77086;BME280;66014;53.134;18.006;2023-05-14T08:34:34;101496.10;;;39.85;13.12
77086;BME280;66014;53.134;18.006;2023-05-14T08:37:01;101493.29;;;39.56;13.23
77086;BME280;66014;53.134;18.006;2023-05-14T08:39:28;101490.65;;;39.39;13.21
77086;BME280;66014;53.134;18.006;2023-05-14T08:41:56;101478.63;;;39.25;13.48
77086;BME280;66014;53.134;18.006;2023-05-14T08:44:33;101475.96;;;39.26;13.51
77086;BME280;66014;53.134;18.006;2023-05-14T08:47:01;101476.11;;;39.42;13.71
77086;BME280;66014;53.134;18.006;2023-05-14T08:49:42;101478.84;;;39.70;13.35
77086;BME280;66014;53.134;18.006;2023-05-14T08:52:09;101477.65;;;39.60;13.30
77086;BME280;66014;53.134;18.006;2023-05-14T08:54:36;101473.69;;;39.34;13.04
77086;BME280;66014;53.134;18.006;2023-05-14T08:57:03;101468.18;;;38.96;13.34
77086;BME280;66014;53.134;18.006;2023-05-14T08:59:30;101470.31;;;38.46;12.88
77086;BME280;66014;53.134;18.006;2023-05-14T09:02:00;101466.05;;;37.76;13.39
77086;BME280;66014;53.134;18.006;2023-05-14T09:04:29;101468.59;;;37.26;13.29
77086;BME280;66014;53.134;18.006;2023-05-14T09:06:59;101453.80;;;36.82;13.64
77086;BME280;66014;53.134;18.006;2023-05-14T09:09:27;101456.34;;;36.96;13.75
77086;BME280;66014;53.134;18.006;2023-05-14T09:11:54;101452.08;;;36.92;13.74
77086;BME280;66014;53.134;18.006;2023-05-14T09:14:21;101457.46;;;36.82;13.82
77086;BME280;66014;53.134;18.006;2023-05-14T09:16:49;101449.38;;;36.74;14.07
77086;BME280;66014;53.134;18.006;2023-05-14T09:19:18;101447.80;;;36.51;14.09
77086;BME280;66014;53.134;18.006;2023-05-14T09:21:47;101440.04;;;36.34;14.20
77086;BME280;66014;53.134;18.006;2023-05-14T09:24:26;101438.23;;;36.64;14.24
77086;BME280;66014;53.134;18.006;2023-05-14T09:26:56;101435.48;;;37.12;13.63
77086;BME280;66014;53.134;18.006;2023-05-14T09:29:24;101430.95;;;36.97;13.59
77086;BME280;66014;53.134;18.006;2023-05-14T09:31:51;101429.23;;;35.77;14.05
77086;BME280;66014;53.134;18.006;2023-05-14T09:34:28;101429.80;;;34.60;14.64
77086;BME280;66014;53.134;18.006;2023-05-14T09:36:57;101428.22;;;33.25;15.31
77086;BME280;66014;53.134;18.006;2023-05-14T09:39:25;101424.91;;;31.75;16.37
77086;BME280;66014;53.134;18.006;2023-05-14T09:41:52;101424.37;;;30.66;17.18
77086;BME280;66014;53.134;18.006;2023-05-14T09:44:19;101426.34;;;29.92;18.16
77086;BME280;66014;53.134;18.006;2023-05-14T09:46:46;101421.41;;;29.25;18.75
77086;BME280;66014;53.134;18.006;2023-05-14T09:49:14;101418.09;;;29.05;18.89
77086;BME280;66014;53.134;18.006;2023-05-14T09:51:41;101412.77;;;29.60;18.76
77086;BME280;66014;53.134;18.006;2023-05-14T09:54:08;101408.11;;;29.27;18.78
77086;BME280;66014;53.134;18.006;2023-05-14T09:56:36;101398.14;;;28.66;19.29
77086;BME280;66014;53.134;18.006;2023-05-14T09:59:02;101394.34;;;28.32;19.68
77086;BME280;66014;53.134;18.006;2023-05-14T10:01:30;101393.91;;;28.33;19.58
77086;BME280;66014;53.134;18.006;2023-05-14T10:03:58;101392.20;;;27.83;20.00
77086;BME280;66014;53.134;18.006;2023-05-14T10:06:27;101391.59;;;27.20;20.57
77086;BME280;66014;53.134;18.006;2023-05-14T10:08:56;101387.48;;;26.81;20.53
77086;BME280;66014;53.134;18.006;2023-05-14T10:11:32;101383.17;;;26.61;20.45
77086;BME280;66014;53.134;18.006;2023-05-14T10:14:06;101383.73;;;26.55;20.71
77086;BME280;66014;53.134;18.006;2023-05-14T10:16:36;101378.15;;;26.91;20.50
77086;BME280;66014;53.134;18.006;2023-05-14T10:19:10;101376.19;;;27.47;20.21
77086;BME280;66014;53.134;18.006;2023-05-14T10:21:39;101374.92;;;28.71;19.20
77086;BME280;66014;53.134;18.006;2023-05-14T10:24:07;101363.67;;;28.93;18.83
77086;BME280;66014;53.134;18.006;2023-05-14T10:26:35;101360.55;;;28.95;18.77
77086;BME280;66014;53.134;18.006;2023-05-14T10:29:08;101357.73;;;28.71;18.75
77086;BME280;66014;53.134;18.006;2023-05-14T10:31:50;101350.75;;;28.34;18.73
77086;BME280;66014;53.134;18.006;2023-05-14T10:34:37;101353.41;;;27.92;18.66
77086;BME280;66014;53.134;18.006;2023-05-14T10:37:14;101350.42;;;27.68;19.23
77086;BME280;66014;53.134;18.006;2023-05-14T10:42:41;101340.45;;;27.29;19.31
77086;BME280;66014;53.134;18.006;2023-05-14T10:45:12;101340.91;;;28.21;18.31
77086;BME280;66014;53.134;18.006;2023-05-14T10:47:41;101342.13;;;27.79;18.35
77086;BME280;66014;53.134;18.006;2023-05-14T10:50:13;101344.14;;;27.19;18.48
77086;BME280;66014;53.134;18.006;2023-05-14T10:52:44;101337.30;;;26.64;18.92
77086;BME280;66014;53.134;18.006;2023-05-14T10:55:12;101338.57;;;26.38;19.30
77086;BME280;66014;53.134;18.006;2023-05-14T10:57:42;101335.52;;;26.38;19.40
77086;BME280;66014;53.134;18.006;2023-05-14T11:00:10;101325.55;;;27.04;19.04
77086;BME280;66014;53.134;18.006;2023-05-14T11:02:40;101326.14;;;26.71;19.18
77086;BME280;66014;53.134;18.006;2023-05-14T11:05:08;101329.66;;;26.29;19.63
77086;BME280;66014;53.134;18.006;2023-05-14T11:07:40;101320.66;;;26.04;19.80
77086;BME280;66014;53.134;18.006;2023-05-14T11:10:09;101317.77;;;25.82;19.91
77086;BME280;66014;53.134;18.006;2023-05-14T11:12:38;101315.89;;;25.51;20.07
77086;BME280;66014;53.134;18.006;2023-05-14T11:15:25;101314.81;;;25.31;20.04
77086;BME280;66014;53.134;18.006;2023-05-14T11:17:52;101304.41;;;26.10;19.77
77086;BME280;66014;53.134;18.006;2023-05-14T11:20:19;101301.38;;;27.44;19.00
77086;BME280;66014;53.134;18.006;2023-05-14T11:22:47;101298.50;;;28.05;18.40
77086;BME280;66014;53.134;18.006;2023-05-14T11:25:14;101299.86;;;27.51;18.69
77086;BME280;66014;53.134;18.006;2023-05-14T11:27:43;101295.92;;;26.87;19.23
77086;BME280;66014;53.134;18.006;2023-05-14T11:30:17;101291.44;;;26.37;19.46
77086;BME280;66014;53.134;18.006;2023-05-14T11:32:45;101291.78;;;26.11;20.11
77086;BME280;66014;53.134;18.006;2023-05-14T11:35:13;101293.15;;;26.13;20.25
77086;BME280;66014;53.134;18.006;2023-05-14T11:37:40;101291.07;;;25.89;20.57
77086;BME280;66014;53.134;18.006;2023-05-14T11:40:13;101291.75;;;25.47;21.05
77086;BME280;66014;53.134;18.006;2023-05-14T11:42:40;101282.44;;;25.06;21.23
77086;BME280;66014;53.134;18.006;2023-05-14T11:45:10;101276.15;;;24.80;21.67
77086;BME280;66014;53.134;18.006;2023-05-14T11:47:40;101274.91;;;24.67;22.14
77086;BME280;66014;53.134;18.006;2023-05-14T11:50:07;101277.56;;;24.61;22.35
77086;BME280;66014;53.134;18.006;2023-05-14T11:52:40;101275.45;;;24.56;22.53
77086;BME280;66014;53.134;18.006;2023-05-14T11:55:10;101277.05;;;24.49;22.95
77086;BME280;66014;53.134;18.006;2023-05-14T11:57:41;101272.53;;;24.54;22.67
77086;BME280;66014;53.134;18.006;2023-05-14T12:00:11;101269.73;;;24.81;22.85
77086;BME280;66014;53.134;18.006;2023-05-14T12:02:47;101264.41;;;24.88;23.10
77086;BME280;66014;53.134;18.006;2023-05-14T12:05:14;101261.54;;;25.32;22.60
77086;BME280;66014;53.134;18.006;2023-05-14T12:07:44;101259.35;;;26.84;21.89
77086;BME280;66014;53.134;18.006;2023-05-14T12:10:11;101251.50;;;27.24;21.24
77086;BME280;66014;53.134;18.006;2023-05-14T12:12:39;101247.09;;;27.96;20.70
77086;BME280;66014;53.134;18.006;2023-05-14T12:15:13;101240.52;;;28.73;19.62
77086;BME280;66014;53.134;18.006;2023-05-14T12:17:40;101245.52;;;29.59;19.27
77086;BME280;66014;53.134;18.006;2023-05-14T12:20:10;101241.14;;;29.86;19.08
77086;BME280;66014;53.134;18.006;2023-05-14T12:22:37;101236.38;;;30.57;17.54
77086;BME280;66014;53.134;18.006;2023-05-14T12:25:09;101234.95;;;30.80;17.67
77086;BME280;66014;53.134;18.006;2023-05-14T12:27:37;101230.29;;;30.72;17.19
77086;BME280;66014;53.134;18.006;2023-05-14T12:30:05;101225.27;;;31.01;17.05
77086;BME280;66014;53.134;18.006;2023-05-14T12:32:33;101218.48;;;31.85;16.68
77086;BME280;66014;53.134;18.006;2023-05-14T12:35:00;101221.93;;;31.64;16.39
77086;BME280;66014;53.134;18.006;2023-05-14T12:37:26;101217.52;;;30.85;16.45
77086;BME280;66014;53.134;18.006;2023-05-14T12:39:53;101219.88;;;29.75;16.61
77086;BME280;66014;53.134;18.006;2023-05-14T12:42:20;101223.44;;;28.61;17.12
77086;BME280;66014;53.134;18.006;2023-05-14T12:44:47;101217.52;;;27.66;17.83
77086;BME280;66014;53.134;18.006;2023-05-14T12:47:14;101217.88;;;27.00;18.35
77086;BME280;66014;53.134;18.006;2023-05-14T12:49:42;101212.63;;;26.46;18.93